Time;durP1;ratioP1;P1;durP2;ratioP2;P2;SDS_P1;SDS_P2;PMS_P1;PMS_P2;Temp;Humidity;BMP_temperature;BMP_pressure;BME280_temperature;BME280_humidity;BME280_pressure;Samples;Min_cycle;Max_cycle;Signal;HPM_P1;HPM_P2
2023/09/26 00:01:03;;;;;;;7.30;3.47;;;;;;;;;;4964723;28;20706;-77
2023/09/26 00:03:31;;;;;;;8.27;3.17;;;;;;;;;;4962362;28;20033;-78
2023/09/26 00:05:56;;;;;;;5.88;3.28;;;;;;;;;;4975828;28;20054;-77
2023/09/26 00:08:22;;;;;;;8.48;3.70;;;;;;;;;;4972772;28;20022;-77
2023/09/26 00:10:47;;;;;;;9.30;3.30;;;;;;;;;;4979434;28;20053;-79
2023/09/26 00:13:14;;;;;;;6.32;3.00;;;;;;;;;;4968660;28;20106;-80
2023/09/26 00:15:39;;;;;;;7.05;3.50;;;;;;;;;;4960132;28;20724;-79
2023/09/26 00:18:05;;;;;;;6.53;3.28;;;;;;;;;;4963831;28;20323;-78
2023/09/26 00:20:34;;;;;;;8.48;3.20;;;;;;;;;;4966032;28;20029;-79
2023/09/26 00:23:00;;;;;;;6.57;3.50;;;;;;;;;;4968844;28;20023;-80
2023/09/26 00:25:26;;;;;;;6.32;3.40;;;;;;;;;;4970683;28;20042;-80
2023/09/26 00:27:52;;;;;;;5.90;3.15;;;;;;;;;;4961833;28;20042;-78
2023/09/26 00:30:18;;;;;;;7.72;3.30;;;;;;;;;;4960446;28;20480;-79
2023/09/26 00:32:44;;;;;;;8.30;3.47;;;;;;;;;;4960095;28;20035;-78
2023/09/26 00:35:13;;;;;;;6.07;3.40;;;;;;;;;;4966701;28;20050;-78
2023/09/26 00:37:43;;;;;;;8.02;3.30;;;;;;;;;;4959362;28;20405;-80
2023/09/26 00:40:18;;;;;;;6.07;3.25;;;;;;;;;;4966566;28;20534;-79
2023/09/26 00:42:45;;;;;;;6.38;3.33;;;;;;;;;;4967385;28;20031;-79
2023/09/26 00:45:11;;;;;;;6.40;3.40;;;;;;;;;;4969480;28;20053;-80
2023/09/26 00:47:40;;;;;;;7.05;3.30;;;;;;;;;;4969266;28;20074;-79
2023/09/26 00:50:12;;;;;;;6.82;3.40;;;;;;;;;;4967142;28;20022;-79
2023/09/26 00:52:43;;;;;;;7.10;3.38;;;;;;;;;;4967918;28;20494;-78
2023/09/26 00:55:09;;;;;;;5.90;3.20;;;;;;;;;;4969659;28;20031;-78
2023/09/26 00:57:35;;;;;;;5.90;3.20;;;;;;;;;;4970402;28;20093;-78
2023/09/26 01:00:02;;;;;;;5.80;3.00;;;;;;;;;;4970437;28;20125;-77
2023/09/26 01:02:27;;;;;;;6.05;3.20;;;;;;;;;;4982656;28;20041;-77
2023/09/26 01:04:54;;;;;;;5.28;3.47;;;;;;;;;;4970244;28;20030;-77
2023/09/26 01:07:21;;;;;;;7.70;3.45;;;;;;;;;;4978251;28;20022;-77
2023/09/26 01:09:47;;;;;;;7.50;3.38;;;;;;;;;;4980261;28;20349;-77
2023/09/26 01:12:12;;;;;;;6.50;3.22;;;;;;;;;;4981176;28;20042;-78
2023/09/26 01:14:37;;;;;;;7.93;3.25;;;;;;;;;;4978532;28;20030;-78
2023/09/26 01:17:03;;;;;;;7.18;3.60;;;;;;;;;;4981619;28;20085;-78
2023/09/26 01:19:29;;;;;;;9.82;3.30;;;;;;;;;;4979535;28;20518;-78
2023/09/26 01:21:54;;;;;;;6.15;3.38;;;;;;;;;;4970856;28;20378;-77
2023/09/26 01:24:20;;;;;;;6.10;3.20;;;;;;;;;;4994481;28;20101;-78
2023/09/26 01:26:45;;;;;;;5.88;3.30;;;;;;;;;;4981381;28;20031;-77
2023/09/26 01:29:10;;;;;;;6.10;3.40;;;;;;;;;;4980581;28;20031;-78
2023/09/26 01:31:36;;;;;;;6.85;3.38;;;;;;;;;;4978829;28;20263;-78
2023/09/26 01:34:02;;;;;;;7.15;3.17;;;;;;;;;;4981395;28;20102;-78
2023/09/26 01:36:28;;;;;;;8.35;3.58;;;;;;;;;;4980897;28;20090;-78
2023/09/26 01:38:56;;;;;;;7.13;3.42;;;;;;;;;;4980932;28;20041;-78
2023/09/26 01:41:22;;;;;;;8.15;3.60;;;;;;;;;;4984802;28;20098;-77
2023/09/26 01:43:48;;;;;;;7.80;3.35;;;;;;;;;;4985478;28;20337;-77
2023/09/26 01:46:13;;;;;;;6.13;3.72;;;;;;;;;;4981089;28;20038;-77
2023/09/26 01:48:39;;;;;;;8.02;3.20;;;;;;;;;;4981172;28;20026;-77
2023/09/26 01:51:05;;;;;;;7.05;3.38;;;;;;;;;;4977115;28;20049;-77
2023/09/26 01:53:30;;;;;;;6.75;3.60;;;;;;;;;;4981847;28;20034;-77
2023/09/26 01:55:59;;;;;;;6.03;3.28;;;;;;;;;;4980509;28;20026;-77
2023/09/26 01:58:24;;;;;;;5.57;3.30;;;;;;;;;;4980608;28;20026;-78
2023/09/26 02:00:50;;;;;;;7.25;3.30;;;;;;;;;;4980439;28;20129;-78
2023/09/26 02:03:15;;;;;;;6.30;3.10;;;;;;;;;;4986605;28;20030;-78
2023/09/26 02:05:40;;;;;;;6.75;3.30;;;;;;;;;;4980727;28;20041;-78
2023/09/26 02:08:06;;;;;;;5.85;3.20;;;;;;;;;;4971178;28;20103;-81
2023/09/26 02:10:31;;;;;;;5.57;3.22;;;;;;;;;;4980675;28;20030;-81
2023/09/26 02:12:57;;;;;;;8.05;3.22;;;;;;;;;;4979934;28;20062;-79
2023/09/26 02:15:22;;;;;;;6.38;3.30;;;;;;;;;;4979052;28;20038;-80
2023/09/26 02:17:48;;;;;;;11.55;3.17;;;;;;;;;;4980305;28;20027;-80
2023/09/26 02:20:16;;;;;;;7.38;3.40;;;;;;;;;;4976659;28;20034;-80
2023/09/26 02:22:46;;;;;;;5.57;3.10;;;;;;;;;;4970863;28;20038;-80
2023/09/26 02:25:13;;;;;;;6.63;3.00;;;;;;;;;;4979237;28;20038;-80
2023/09/26 02:27:43;;;;;;;5.82;2.90;;;;;;;;;;4980704;28;20307;-80
2023/09/26 02:30:10;;;;;;;4.82;3.05;;;;;;;;;;4979798;28;20026;-80
2023/09/26 02:32:36;;;;;;;6.25;3.25;;;;;;;;;;4981245;28;20370;-80
2023/09/26 02:35:07;;;;;;;9.20;3.17;;;;;;;;;;4982348;28;20045;-80
2023/09/26 02:37:32;;;;;;;5.15;2.78;;;;;;;;;;4980553;28;20107;-80
2023/09/26 02:39:58;;;;;;;6.22;3.30;;;;;;;;;;4992757;28;20035;-80
2023/09/26 02:42:23;;;;;;;5.25;2.88;;;;;;;;;;4987359;28;20349;-80
2023/09/26 02:44:48;;;;;;;5.55;2.90;;;;;;;;;;4979768;28;20055;-79
2023/09/26 02:47:14;;;;;;;6.72;2.72;;;;;;;;;;4978706;28;20030;-80
2023/09/26 02:49:39;;;;;;;8.15;2.92;;;;;;;;;;4981765;28;20027;-80
2023/09/26 02:52:05;;;;;;;4.65;2.90;;;;;;;;;;4976350;28;20023;-80
2023/09/26 02:54:30;;;;;;;7.43;2.80;;;;;;;;;;4979474;28;20033;-80
2023/09/26 02:56:57;;;;;;;6.07;2.85;;;;;;;;;;4979642;28;20039;-80
2023/09/26 02:59:22;;;;;;;6.45;2.83;;;;;;;;;;4979946;28;20034;-80
2023/09/26 03:01:48;;;;;;;7.05;2.70;;;;;;;;;;4980214;28;20266;-80
2023/09/26 03:04:13;;;;;;;4.65;2.70;;;;;;;;;;4979855;28;20094;-80
2023/09/26 03:06:38;;;;;;;4.07;2.70;;;;;;;;;;4979887;28;20037;-81
2023/09/26 03:09:04;;;;;;;5.25;2.75;;;;;;;;;;4980928;28;20086;-81
2023/09/26 03:11:29;;;;;;;5.55;2.60;;;;;;;;;;4986245;28;20061;-79
2023/09/26 03:13:55;;;;;;;6.63;2.80;;;;;;;;;;4981820;28;20031;-80
2023/09/26 03:16:20;;;;;;;6.40;2.78;;;;;;;;;;4978452;28;20034;-80
2023/09/26 03:18:46;;;;;;;5.40;2.45;;;;;;;;;;4980155;28;20030;-80
2023/09/26 03:21:11;;;;;;;6.97;2.72;;;;;;;;;;4967792;28;20035;-80
2023/09/26 03:23:37;;;;;;;6.95;2.60;;;;;;;;;;4977116;28;20042;-80
2023/09/26 03:26:09;;;;;;;6.22;2.60;;;;;;;;;;4979183;28;20046;-80
2023/09/26 03:28:34;;;;;;;5.13;2.80;;;;;;;;;;4980314;28;20049;-80
2023/09/26 03:31:03;;;;;;;8.43;2.80;;;;;;;;;;4990425;28;20034;-79
2023/09/26 03:33:29;;;;;;;6.85;2.58;;;;;;;;;;4979648;28;20051;-80
2023/09/26 03:35:54;;;;;;;6.50;2.75;;;;;;;;;;4978799;28;20037;-80
2023/09/26 03:38:21;;;;;;;4.10;2.58;;;;;;;;;;4979028;28;20030;-80
2023/09/26 03:40:46;;;;;;;6.03;2.70;;;;;;;;;;4982666;28;20058;-80
2023/09/26 03:43:11;;;;;;;4.32;2.60;;;;;;;;;;4981927;28;20203;-80
2023/09/26 03:45:37;;;;;;;7.47;2.80;;;;;;;;;;4979528;28;20061;-80
2023/09/26 03:48:02;;;;;;;5.57;3.08;;;;;;;;;;4978563;28;20268;-81
2023/09/26 03:50:27;;;;;;;4.85;2.40;;;;;;;;;;4979048;28;20039;-80
2023/09/26 03:52:53;;;;;;;6.15;2.70;;;;;;;;;;4968359;28;20034;-81
2023/09/26 03:55:18;;;;;;;5.10;2.50;;;;;;;;;;4983359;28;20206;-81
2023/09/26 03:57:43;;;;;;;5.70;2.55;;;;;;;;;;4982965;28;20104;-81
2023/09/26 04:00:16;;;;;;;5.88;2.33;;;;;;;;;;4989855;28;20326;-80
2023/09/26 04:02:44;;;;;;;8.55;3.10;;;;;;;;;;4979138;28;20026;-81
2023/09/26 04:05:09;;;;;;;4.45;2.60;;;;;;;;;;4980160;28;20027;-80
2023/09/26 04:07:35;;;;;;;8.50;2.90;;;;;;;;;;4979740;28;20026;-81
2023/09/26 04:10:00;;;;;;;4.93;2.88;;;;;;;;;;4982129;28;20022;-80
2023/09/26 04:12:26;;;;;;;6.45;3.10;;;;;;;;;;4985030;28;20043;-80
2023/09/26 04:14:51;;;;;;;6.32;3.10;;;;;;;;;;4988159;28;20022;-81
2023/09/26 04:17:17;;;;;;;5.25;3.00;;;;;;;;;;4979649;28;20041;-80
2023/09/26 04:19:46;;;;;;;5.38;2.90;;;;;;;;;;4981424;28;20046;-81
2023/09/26 04:22:11;;;;;;;5.72;3.20;;;;;;;;;;4975572;28;20480;-80
2023/09/26 04:24:36;;;;;;;6.50;2.90;;;;;;;;;;4980022;28;20022;-80
2023/09/26 04:27:02;;;;;;;4.70;2.70;;;;;;;;;;4982229;28;20019;-80
2023/09/26 04:29:28;;;;;;;7.07;2.90;;;;;;;;;;4983764;28;20019;-80
2023/09/26 04:31:53;;;;;;;4.93;2.78;;;;;;;;;;4982299;28;20090;-81
2023/09/26 04:34:21;;;;;;;5.38;2.92;;;;;;;;;;4983478;28;20026;-81
2023/09/26 04:36:46;;;;;;;6.78;3.05;;;;;;;;;;4976719;28;20034;-81
2023/09/26 04:39:12;;;;;;;5.13;2.90;;;;;;;;;;4979633;28;20026;-79
2023/09/26 04:41:37;;;;;;;6.40;2.90;;;;;;;;;;4983207;28;20027;-81
2023/09/26 04:44:02;;;;;;;4.15;2.63;;;;;;;;;;4984808;28;20267;-80
2023/09/26 04:46:28;;;;;;;4.47;2.40;;;;;;;;;;4977686;28;20038;-81
2023/09/26 04:48:53;;;;;;;5.18;2.85;;;;;;;;;;4981039;28;20057;-80
2023/09/26 04:51:18;;;;;;;10.07;3.10;;;;;;;;;;4981129;28;20035;-81
2023/09/26 04:53:44;;;;;;;5.53;2.70;;;;;;;;;;4981625;28;20337;-80
2023/09/26 04:56:09;;;;;;;6.00;2.92;;;;;;;;;;4979014;28;20039;-81
2023/09/26 04:58:35;;;;;;;6.93;2.75;;;;;;;;;;4980309;28;20346;-80
2023/09/26 05:01:13;;;;;;;9.20;2.70;;;;;;;;;;4980919;28;20050;-81
2023/09/26 05:03:38;;;;;;;7.03;2.88;;;;;;;;;;4981575;28;20058;-80
2023/09/26 05:06:04;;;;;;;4.97;2.80;;;;;;;;;;4979230;28;20030;-80
2023/09/26 05:08:29;;;;;;;4.90;2.70;;;;;;;;;;4987414;28;20096;-80
2023/09/26 05:10:55;;;;;;;7.47;3.20;;;;;;;;;;4980690;28;20058;-81
2023/09/26 05:13:23;;;;;;;6.18;3.00;;;;;;;;;;4981824;28;20322;-81
2023/09/26 05:15:48;;;;;;;6.80;2.78;;;;;;;;;;4982128;28;20094;-81
2023/09/26 05:18:14;;;;;;;6.15;2.80;;;;;;;;;;4980575;28;20030;-80
2023/09/26 05:20:39;;;;;;;5.93;2.80;;;;;;;;;;4977942;28;20027;-80
2023/09/26 05:23:05;;;;;;;6.10;3.20;;;;;;;;;;4979968;28;20066;-79
2023/09/26 05:25:33;;;;;;;8.63;3.28;;;;;;;;;;4980360;28;20051;-79
2023/09/26 05:27:59;;;;;;;6.78;2.92;;;;;;;;;;4978414;28;20352;-80
2023/09/26 05:30:24;;;;;;;5.75;3.20;;;;;;;;;;4978889;28;20034;-80
2023/09/26 05:32:50;;;;;;;4.53;3.00;;;;;;;;;;4980293;28;20033;-80
2023/09/26 05:35:15;;;;;;;5.93;3.30;;;;;;;;;;4977134;28;20447;-80
2023/09/26 05:37:40;;;;;;;7.32;3.45;;;;;;;;;;4981614;28;20026;-80
2023/09/26 05:40:07;;;;;;;6.55;3.90;;;;;;;;;;4977832;28;20022;-80
2023/09/26 05:42:33;;;;;;;6.35;3.30;;;;;;;;;;4978073;28;20039;-79
2023/09/26 05:44:59;;;;;;;8.60;3.40;;;;;;;;;;4974011;28;20047;-79
2023/09/26 05:47:24;;;;;;;6.07;3.20;;;;;;;;;;4978238;28;20031;-80
2023/09/26 05:49:51;;;;;;;6.43;3.55;;;;;;;;;;4979074;28;20031;-80
2023/09/26 05:52:16;;;;;;;9.18;3.75;;;;;;;;;;4976199;28;20105;-78
2023/09/26 05:54:42;;;;;;;12.07;3.55;;;;;;;;;;4979204;28;20031;-78
2023/09/26 05:57:07;;;;;;;9.27;3.35;;;;;;;;;;4980062;28;20489;-77
2023/09/26 05:59:32;;;;;;;6.45;3.53;;;;;;;;;;4983394;28;20019;-78
2023/09/26 06:01:58;;;;;;;9.93;3.33;;;;;;;;;;4978926;28;20053;-78
2023/09/26 06:04:24;;;;;;;7.68;3.30;;;;;;;;;;4965939;28;20375;-79
2023/09/26 06:06:49;;;;;;;9.55;3.53;;;;;;;;;;4966954;28;20026;-80
2023/09/26 06:09:15;;;;;;;10.02;3.55;;;;;;;;;;4970192;28;20027;-80
2023/09/26 06:11:40;;;;;;;8.57;3.72;;;;;;;;;;4970771;28;20118;-79
2023/09/26 06:14:05;;;;;;;9.82;3.72;;;;;;;;;;4970262;28;20035;-79
2023/09/26 06:16:31;;;;;;;8.35;3.95;;;;;;;;;;4970218;28;20039;-80
2023/09/26 06:18:56;;;;;;;9.02;3.10;;;;;;;;;;4979331;28;20054;-80
2023/09/26 06:21:21;;;;;;;7.15;3.30;;;;;;;;;;4974625;28;20093;-81
2023/09/26 06:23:48;;;;;;;11.05;3.55;;;;;;;;;;4969962;28;20213;-81
2023/09/26 06:26:14;;;;;;;9.60;3.38;;;;;;;;;;4969222;28;20015;-81
2023/09/26 06:28:39;;;;;;;10.30;3.58;;;;;;;;;;4969347;28;20038;-80
2023/09/26 06:31:06;;;;;;;8.15;3.30;;;;;;;;;;4970560;28;20019;-81
2023/09/26 06:33:31;;;;;;;8.07;3.28;;;;;;;;;;4970360;28;20034;-80
2023/09/26 06:35:57;;;;;;;9.35;3.40;;;;;;;;;;4963493;28;20125;-81
2023/09/26 06:38:22;;;;;;;9.27;3.60;;;;;;;;;;4966175;28;20043;-80
2023/09/26 06:40:47;;;;;;;13.18;3.78;;;;;;;;;;4971964;28;20031;-80
2023/09/26 06:43:13;;;;;;;7.15;3.28;;;;;;;;;;4970198;28;20027;-80
2023/09/26 06:45:39;;;;;;;7.78;3.30;;;;;;;;;;4965914;28;20031;-80
2023/09/26 06:48:05;;;;;;;11.65;3.13;;;;;;;;;;4968793;28;20097;-80
2023/09/26 06:50:32;;;;;;;7.95;3.13;;;;;;;;;;4959762;28;20034;-80
2023/09/26 06:52:57;;;;;;;8.13;3.13;;;;;;;;;;4969022;28;20101;-80
2023/09/26 06:55:23;;;;;;;5.95;3.83;;;;;;;;;;4966613;28;20048;-80
2023/09/26 06:57:48;;;;;;;7.65;3.40;;;;;;;;;;4971050;28;20177;-80
2023/09/26 07:00:16;;;;;;;7.57;3.10;;;;;;;;;;4968915;28;20082;-81
2023/09/26 07:02:42;;;;;;;5.55;2.90;;;;;;;;;;4960346;28;20026;-80
2023/09/26 07:05:08;;;;;;;8.27;3.03;;;;;;;;;;4959150;28;20034;-80
2023/09/26 07:07:34;;;;;;;7.82;3.00;;;;;;;;;;4961944;28;20038;-81
2023/09/26 07:10:00;;;;;;;6.55;3.20;;;;;;;;;;4956792;28;20023;-80
2023/09/26 07:12:26;;;;;;;9.30;3.30;;;;;;;;;;4968998;28;20023;-80
2023/09/26 07:14:57;;;;;;;5.30;3.10;;;;;;;;;;4969287;28;20034;-81
2023/09/26 07:17:22;;;;;;;5.15;2.97;;;;;;;;;;4962651;28;20027;-81
2023/09/26 07:19:51;;;;;;;6.25;3.22;;;;;;;;;;4971952;28;20691;-79
2023/09/26 07:22:17;;;;;;;13.38;3.22;;;;;;;;;;4970685;28;20046;-80
2023/09/26 07:24:42;;;;;;;8.07;2.92;;;;;;;;;;4972094;28;20295;-81
2023/09/26 07:27:08;;;;;;;8.38;2.70;;;;;;;;;;4974431;28;20035;-81
2023/09/26 07:29:33;;;;;;;6.82;2.97;;;;;;;;;;4969487;28;20034;-77
2023/09/26 07:31:59;;;;;;;8.07;2.88;;;;;;;;;;4976644;28;20074;-77
2023/09/26 07:34:25;;;;;;;8.80;2.92;;;;;;;;;;4961733;28;20507;-79
2023/09/26 07:36:50;;;;;;;8.82;2.65;;;;;;;;;;4963020;28;21245;-77
2023/09/26 07:39:17;;;;;;;8.70;2.95;;;;;;;;;;4964067;28;20483;-78
2023/09/26 07:41:42;;;;;;;7.18;3.05;;;;;;;;;;4965651;28;20027;-78
2023/09/26 07:44:08;;;;;;;10.02;3.30;;;;;;;;;;4965362;28;20054;-77
2023/09/26 07:46:34;;;;;;;6.78;3.03;;;;;;;;;;4954118;28;20114;-78
2023/09/26 07:48:59;;;;;;;6.72;3.03;;;;;;;;;;4960133;28;20031;-77
2023/09/26 07:51:25;;;;;;;6.03;3.20;;;;;;;;;;4963403;28;20160;-77
2023/09/26 07:53:50;;;;;;;9.93;3.38;;;;;;;;;;4966481;28;20038;-78
2023/09/26 07:56:16;;;;;;;7.78;3.25;;;;;;;;;;4973713;28;20035;-78
2023/09/26 07:58:41;;;;;;;8.43;3.10;;;;;;;;;;4963138;28;20181;-79
2023/09/26 08:01:08;;;;;;;8.40;3.55;;;;;;;;;;4959375;28;20114;-78
2023/09/26 08:03:34;;;;;;;7.40;3.28;;;;;;;;;;4967737;28;20681;-78
2023/09/26 08:06:04;;;;;;;9.30;2.97;;;;;;;;;;4967511;28;20505;-78
2023/09/26 08:08:29;;;;;;;7.05;3.00;;;;;;;;;;4969875;28;20034;-78
2023/09/26 08:10:56;;;;;;;10.25;3.05;;;;;;;;;;4963695;28;20123;-78
2023/09/26 08:13:22;;;;;;;11.27;3.05;;;;;;;;;;4970053;28;20074;-77
2023/09/26 08:15:47;;;;;;;8.90;3.28;;;;;;;;;;4972376;28;20459;-78
2023/09/26 08:18:15;;;;;;;8.02;2.97;;;;;;;;;;4972989;28;20037;-78
2023/09/26 08:20:40;;;;;;;7.00;2.80;;;;;;;;;;4974341;28;20018;-78
2023/09/26 08:23:06;;;;;;;7.25;3.03;;;;;;;;;;4972461;28;20251;-77
2023/09/26 08:25:34;;;;;;;8.65;3.08;;;;;;;;;;4972323;28;20046;-78
2023/09/26 08:27:59;;;;;;;7.75;2.70;;;;;;;;;;4972806;28;20491;-77
2023/09/26 08:30:25;;;;;;;9.23;2.90;;;;;;;;;;4963935;28;20088;-78
2023/09/26 08:32:50;;;;;;;10.13;3.00;;;;;;;;;;4971300;28;20023;-77
2023/09/26 08:35:15;;;;;;;8.80;2.92;;;;;;;;;;4974657;28;20038;-77
2023/09/26 08:37:41;;;;;;;10.02;2.95;;;;;;;;;;4972324;28;20034;-77
2023/09/26 08:40:13;;;;;;;6.97;2.80;;;;;;;;;;4972521;28;20023;-77
2023/09/26 08:42:45;;;;;;;10.32;3.40;;;;;;;;;;4978235;28;20450;-77
2023/09/26 08:45:11;;;;;;;6.78;2.95;;;;;;;;;;4981847;28;20051;-79
2023/09/26 08:47:42;;;;;;;11.48;2.80;;;;;;;;;;4982359;28;20023;-77
2023/09/26 08:50:07;;;;;;;7.10;2.80;;;;;;;;;;4983684;28;20093;-77
2023/09/26 08:52:33;;;;;;;6.40;2.63;;;;;;;;;;4982309;28;20318;-79
2023/09/26 08:54:59;;;;;;;8.88;2.70;;;;;;;;;;4976199;28;20026;-78
2023/09/26 08:57:25;;;;;;;7.80;2.70;;;;;;;;;;4977782;28;20054;-78
2023/09/26 08:59:53;;;;;;;7.28;2.60;;;;;;;;;;4974157;28;20082;-79
2023/09/26 09:02:18;;;;;;;9.40;2.70;;;;;;;;;;4979984;28;20034;-79
2023/09/26 09:04:45;;;;;;;8.10;2.70;;;;;;;;;;4975044;28;20019;-78
2023/09/26 09:07:12;;;;;;;5.35;2.50;;;;;;;;;;4975275;28;20035;-80
2023/09/26 09:09:57;;;;;;;9.63;2.70;;;;;;;;;;4979526;28;20089;-78
2023/09/26 09:12:23;;;;;;;9.43;2.92;;;;;;;;;;4973115;28;20216;-78
2023/09/26 09:14:48;;;;;;;10.07;3.30;;;;;;;;;;4982859;28;20033;-77
2023/09/26 09:17:14;;;;;;;7.85;2.83;;;;;;;;;;4982859;28;20034;-77
2023/09/26 09:19:51;;;;;;;8.85;2.75;;;;;;;;;;4982737;28;20049;-77
2023/09/26 09:22:24;;;;;;;7.85;2.60;;;;;;;;;;4982664;28;20019;-78
2023/09/26 09:24:56;;;;;;;6.00;2.60;;;;;;;;;;4967793;28;20030;-76
2023/09/26 09:27:35;;;;;;;10.27;2.90;;;;;;;;;;4964430;28;20019;-77
2023/09/26 09:30:05;;;;;;;6.88;2.80;;;;;;;;;;4973400;28;20102;-77
2023/09/26 09:32:31;;;;;;;5.50;2.40;;;;;;;;;;4970499;28;20205;-77
2023/09/26 09:34:59;;;;;;;7.20;2.53;;;;;;;;;;4977462;28;20070;-77
2023/09/26 09:37:25;;;;;;;17.70;2.75;;;;;;;;;;4970964;28;20034;-77
2023/09/26 09:39:51;;;;;;;10.93;2.72;;;;;;;;;;4970764;28;20030;-77
2023/09/26 09:42:17;;;;;;;6.32;2.70;;;;;;;;;;4971520;28;20030;-78
2023/09/26 09:44:42;;;;;;;10.10;2.97;;;;;;;;;;4969919;28;20082;-78
2023/09/26 09:47:10;;;;;;;11.25;2.67;;;;;;;;;;4973257;28;20331;-78
2023/09/26 09:49:41;;;;;;;9.90;2.78;;;;;;;;;;4979128;28;20022;-77
2023/09/26 09:52:10;;;;;;;5.93;2.50;;;;;;;;;;4969118;28;20042;-75
2023/09/26 09:54:43;;;;;;;6.38;2.53;;;;;;;;;;4964022;28;20023;-75
2023/09/26 09:57:12;;;;;;;6.78;2.50;;;;;;;;;;4956886;28;20504;-75
2023/09/26 09:59:43;;;;;;;6.35;3.00;;;;;;;;;;4959041;28;20032;-76
2023/09/26 10:02:12;;;;;;;7.22;3.00;;;;;;;;;;4972926;28;20035;-73
2023/09/26 10:04:39;;;;;;;6.40;2.63;;;;;;;;;;4961814;28;20015;-75
2023/09/26 10:07:04;;;;;;;8.55;2.97;;;;;;;;;;4960770;28;20390;-74
2023/09/26 10:09:38;;;;;;;12.18;2.60;;;;;;;;;;4978966;28;20035;-76
2023/09/26 10:12:05;;;;;;;11.50;2.90;;;;;;;;;;4975445;28;20019;-75
2023/09/26 10:14:31;;;;;;;9.73;3.05;;;;;;;;;;4968120;28;20035;-76
2023/09/26 10:17:02;;;;;;;10.05;2.70;;;;;;;;;;4969376;28;20150;-76
2023/09/26 10:19:28;;;;;;;12.00;2.72;;;;;;;;;;4974546;28;20034;-77
2023/09/26 10:22:15;;;;;;;7.72;2.90;;;;;;;;;;4973508;28;20034;-76
2023/09/26 10:24:51;;;;;;;9.35;2.65;;;;;;;;;;4970652;28;20037;-78
2023/09/26 10:27:38;;;;;;;10.07;2.83;;;;;;;;;;4967410;28;20030;-76
2023/09/26 10:30:06;;;;;;;10.25;2.70;;;;;;;;;;4966999;28;20265;-77
2023/09/26 10:32:35;;;;;;;8.82;2.80;;;;;;;;;;4970055;28;20050;-79
2023/09/26 10:35:13;;;;;;;8.15;2.78;;;;;;;;;;4971412;28;20134;-80
2023/09/26 10:37:40;;;;;;;6.07;2.60;;;;;;;;;;4970022;28;20027;-79
2023/09/26 10:40:13;;;;;;;9.77;2.90;;;;;;;;;;4968385;28;20049;-75
2023/09/26 10:42:43;;;;;;;5.55;2.50;;;;;;;;;;4969841;28;20105;-76
2023/09/26 10:45:10;;;;;;;7.65;2.60;;;;;;;;;;4969901;28;20051;-75
2023/09/26 10:47:38;;;;;;;8.00;2.70;;;;;;;;;;4970166;28;20101;-75
2023/09/26 10:50:13;;;;;;;6.53;2.60;;;;;;;;;;4970150;28;20085;-74
2023/09/26 10:52:46;;;;;;;9.05;3.00;;;;;;;;;;4968884;28;20026;-74
2023/09/26 10:55:14;;;;;;;6.68;2.42;;;;;;;;;;4956645;28;20035;-74
2023/09/26 10:57:39;;;;;;;7.38;2.40;;;;;;;;;;4964824;28;20038;-75
2023/09/26 11:00:12;;;;;;;7.45;2.65;;;;;;;;;;4969615;28;20027;-75
2023/09/26 11:02:41;;;;;;;6.07;2.60;;;;;;;;;;4969683;28;20062;-74
2023/09/26 11:05:11;;;;;;;7.95;2.60;;;;;;;;;;4960811;28;20113;-75
2023/09/26 11:07:38;;;;;;;8.02;3.10;;;;;;;;;;4955122;28;20064;-76
2023/09/26 11:10:04;;;;;;;9.30;2.55;;;;;;;;;;4970384;28;20035;-75
2023/09/26 11:12:30;;;;;;;7.72;2.78;;;;;;;;;;4969895;28;20031;-76
2023/09/26 11:14:56;;;;;;;7.13;2.70;;;;;;;;;;4969923;28;20054;-76
2023/09/26 11:17:23;;;;;;;5.60;2.50;;;;;;;;;;4969279;28;20027;-77
2023/09/26 11:19:50;;;;;;;5.65;2.50;;;;;;;;;;4968522;28;20031;-76
2023/09/26 11:22:16;;;;;;;6.40;2.47;;;;;;;;;;4968573;28;20058;-77
2023/09/26 11:24:41;;;;;;;5.15;2.30;;;;;;;;;;4963390;28;20066;-79
2023/09/26 11:27:08;;;;;;;6.05;2.58;;;;;;;;;;4965916;28;20019;-77
2023/09/26 11:29:35;;;;;;;5.35;2.40;;;;;;;;;;4969224;28;20027;-80
2023/09/26 11:32:02;;;;;;;7.32;2.63;;;;;;;;;;4969959;28;20023;-76
2023/09/26 11:34:28;;;;;;;8.00;2.60;;;;;;;;;;4966360;28;20026;-76
2023/09/26 11:36:53;;;;;;;9.82;2.80;;;;;;;;;;4962212;28;20031;-76
2023/09/26 11:39:20;;;;;;;6.15;2.47;;;;;;;;;;4963158;28;20479;-77
2023/09/26 11:41:47;;;;;;;6.20;2.70;;;;;;;;;;4956771;28;20814;-76
2023/09/26 11:44:14;;;;;;;5.97;2.58;;;;;;;;;;4969283;28;20051;-76
2023/09/26 11:46:44;;;;;;;7.38;2.58;;;;;;;;;;4959401;28;20057;-76
2023/09/26 11:49:11;;;;;;;5.63;2.30;;;;;;;;;;4969539;28;20179;-76
2023/09/26 11:51:37;;;;;;;5.80;2.40;;;;;;;;;;4969597;28;20086;-77
2023/09/26 11:54:03;;;;;;;5.70;2.30;;;;;;;;;;4966864;28;22686;-76
2023/09/26 11:56:28;;;;;;;5.15;2.35;;;;;;;;;;4959318;28;20031;-76
2023/09/26 11:58:54;;;;;;;6.28;2.53;;;;;;;;;;4969517;28;20081;-76
2023/09/26 12:01:20;;;;;;;8.63;2.35;;;;;;;;;;4969718;28;20056;-77
2023/09/26 12:03:46;;;;;;;5.60;2.67;;;;;;;;;;4967775;28;20037;-77
2023/09/26 12:06:11;;;;;;;8.80;2.55;;;;;;;;;;4959619;28;20038;-82
2023/09/26 12:08:37;;;;;;;5.38;2.63;;;;;;;;;;4971307;28;20034;-76
2023/09/26 12:11:02;;;;;;;6.82;2.40;;;;;;;;;;4979367;28;20029;-78
2023/09/26 12:13:28;;;;;;;5.18;2.60;;;;;;;;;;4984102;28;20326;-81
2023/09/26 12:15:53;;;;;;;4.80;2.58;;;;;;;;;;4984125;28;20034;-75
2023/09/26 12:18:18;;;;;;;8.57;2.50;;;;;;;;;;4984365;28;20030;-74
2023/09/26 12:20:44;;;;;;;4.43;2.35;;;;;;;;;;4981678;28;20025;-75
2023/09/26 12:23:10;;;;;;;7.25;2.50;;;;;;;;;;4982893;28;20122;-74
2023/09/26 12:25:35;;;;;;;4.65;2.40;;;;;;;;;;4976039;28;20041;-74
2023/09/26 12:28:01;;;;;;;7.25;2.65;;;;;;;;;;4977202;28;20089;-82
2023/09/26 12:30:27;;;;;;;9.48;2.60;;;;;;;;;;4980499;28;20026;-74
2023/09/26 12:32:53;;;;;;;4.22;2.80;;;;;;;;;;4985198;28;20091;-76
2023/09/26 12:35:18;;;;;;;5.90;2.67;;;;;;;;;;4990574;28;20027;-78
2023/09/26 12:37:45;;;;;;;5.05;2.60;;;;;;;;;;4971992;28;20226;-75
2023/09/26 12:40:12;;;;;;;10.25;3.50;;;;;;;;;;4983040;28;20102;-76
2023/09/26 12:42:39;;;;;;;9.27;2.67;;;;;;;;;;4976909;28;20083;-85
2023/09/26 12:45:05;;;;;;;5.10;2.72;;;;;;;;;;4968560;28;20039;-83
2023/09/26 12:47:31;;;;;;;5.50;2.70;;;;;;;;;;4966954;28;20081;-85
2023/09/26 12:49:58;;;;;;;5.45;2.53;;;;;;;;;;4972020;28;20476;-81
2023/09/26 12:52:27;;;;;;;8.13;2.55;;;;;;;;;;4966472;28;20046;-75
2023/09/26 12:54:52;;;;;;;8.30;2.92;;;;;;;;;;4972139;28;20044;-84
2023/09/26 12:57:18;;;;;;;4.72;2.65;;;;;;;;;;4962607;28;20039;-82
2023/09/26 12:59:43;;;;;;;6.45;2.63;;;;;;;;;;4966163;28;20148;-83
2023/09/26 13:02:09;;;;;;;5.60;2.90;;;;;;;;;;4972627;28;20035;-83
2023/09/26 13:04:34;;;;;;;8.07;2.80;;;;;;;;;;4971031;28;20027;-82
2023/09/26 13:07:00;;;;;;;7.10;2.97;;;;;;;;;;4971925;28;20030;-84
2023/09/26 13:09:25;;;;;;;6.55;2.80;;;;;;;;;;4971389;28;20038;-84
2023/09/26 13:11:50;;;;;;;6.28;2.67;;;;;;;;;;4972269;28;20038;-78
2023/09/26 13:14:16;;;;;;;4.90;2.40;;;;;;;;;;4970174;28;20073;-82
2023/09/26 13:16:41;;;;;;;5.50;2.65;;;;;;;;;;4970641;28;20109;-82
2023/09/26 13:19:06;;;;;;;5.00;2.70;;;;;;;;;;4973033;28;20515;-84
2023/09/26 13:21:32;;;;;;;6.53;2.90;;;;;;;;;;4973204;28;20085;-83
2023/09/26 13:23:57;;;;;;;5.63;2.22;;;;;;;;;;4971466;28;20023;-84
2023/09/26 13:26:22;;;;;;;5.05;2.30;;;;;;;;;;4969553;28;20023;-82
2023/09/26 13:28:48;;;;;;;5.35;2.50;;;;;;;;;;4965241;28;20034;-84
2023/09/26 13:31:13;;;;;;;6.00;2.20;;;;;;;;;;4971786;28;20038;-82
2023/09/26 13:33:39;;;;;;;4.47;2.22;;;;;;;;;;4971761;28;20031;-80
2023/09/26 13:36:05;;;;;;;5.93;2.50;;;;;;;;;;4970302;28;20022;-81
2023/09/26 13:38:30;;;;;;;4.88;2.50;;;;;;;;;;4970890;28;20019;-85
2023/09/26 13:40:55;;;;;;;7.43;2.35;;;;;;;;;;4970978;28;20031;-77
2023/09/26 13:43:21;;;;;;;3.65;2.30;;;;;;;;;;4970615;28;20058;-84
2023/09/26 13:45:46;;;;;;;4.90;2.35;;;;;;;;;;4970496;28;20431;-86
2023/09/26 13:48:13;;;;;;;4.55;2.40;;;;;;;;;;4966042;28;20411;-82
2023/09/26 13:50:39;;;;;;;3.85;2.28;;;;;;;;;;4963749;28;20045;-83
2023/09/26 13:53:05;;;;;;;4.40;2.28;;;;;;;;;;4970138;28;20105;-83
2023/09/26 13:55:30;;;;;;;6.93;2.40;;;;;;;;;;4965765;28;20035;-83
2023/09/26 13:57:55;;;;;;;5.57;2.40;;;;;;;;;;4961704;28;20050;-81
2023/09/26 14:00:21;;;;;;;4.95;2.30;;;;;;;;;;4951954;28;20059;-82
2023/09/26 14:02:52;;;;;;;3.88;2.20;;;;;;;;;;4968112;28;20109;-84
2023/09/26 14:05:17;;;;;;;4.43;2.28;;;;;;;;;;4964056;28;20134;-79
2023/09/26 14:07:43;;;;;;;5.80;2.13;;;;;;;;;;4968136;28;20413;-83
2023/09/26 14:10:09;;;;;;;7.78;2.42;;;;;;;;;;4969616;28;20170;-77
2023/09/26 14:12:35;;;;;;;6.75;2.30;;;;;;;;;;4970790;28;20023;-76
2023/09/26 14:15:01;;;;;;;5.35;2.15;;;;;;;;;;4970745;28;20110;-78
2023/09/26 14:17:26;;;;;;;4.65;2.20;;;;;;;;;;4970786;28;20113;-75
2023/09/26 14:19:51;;;;;;;6.28;2.20;;;;;;;;;;4970337;28;20033;-75
2023/09/26 14:22:17;;;;;;;4.00;2.30;;;;;;;;;;4970321;28;20137;-75
2023/09/26 14:24:43;;;;;;;6.78;2.35;;;;;;;;;;4970689;28;20115;-75
2023/09/26 14:27:09;;;;;;;4.35;2.30;;;;;;;;;;4970928;28;20026;-74
2023/09/26 14:29:34;;;;;;;3.97;2.30;;;;;;;;;;4970653;28;20431;-75
2023/09/26 14:31:59;;;;;;;4.68;2.03;;;;;;;;;;4970636;28;20038;-75
2023/09/26 14:34:27;;;;;;;4.93;2.15;;;;;;;;;;4969827;28;20102;-75
2023/09/26 14:36:53;;;;;;;3.67;2.30;;;;;;;;;;4969252;28;20050;-76
2023/09/26 14:39:18;;;;;;;4.35;2.10;;;;;;;;;;4966293;28;20069;-83